Time;durP1;ratioP1;P1;durP2;ratioP2;P2;SDS_P1;SDS_P2;PMS_P1;PMS_P2;Temp;Humidity;BMP_temperature;BMP_pressure;BME280_temperature;BME280_humidity;BME280_pressure;Samples;Min_cycle;Max_cycle;Signal;HPM_P1;HPM_P2
2023/08/04 00:02:24;;;;;;;4.43;1.30;;;14.70;99.90;;;;;;5119540;28;20250;-46
2023/08/04 00:04:52;;;;;;;1.73;0.90;;;14.60;99.90;;;;;;5119622;28;20207;-45
2023/08/04 00:07:18;;;;;;;3.23;1.50;;;14.50;99.90;;;;;;5120742;28;20558;-47
2023/08/04 00:09:43;;;;;;;2.30;1.00;;;14.50;99.90;;;;;;5118500;28;20501;-46
2023/08/04 00:12:09;;;;;;;2.97;1.37;;;14.40;1.00;;;;;;5102195;28;20622;-45
2023/08/04 00:14:36;;;;;;;2.20;1.20;;;14.30;1.00;;;;;;5118966;28;20206;-44
2023/08/04 00:17:01;;;;;;;1.87;0.93;;;14.20;1.00;;;;;;5118462;28;20188;-46
2023/08/04 00:19:27;;;;;;;2.23;1.03;;;14.20;1.00;;;;;;5101407;28;20432;-44
2023/08/04 00:21:53;;;;;;;2.60;1.37;;;14.10;1.00;;;;;;5119517;28;20183;-45
2023/08/04 00:24:18;;;;;;;2.67;1.20;;;14.10;1.00;;;;;;5119660;28;20218;-44
2023/08/04 00:26:44;;;;;;;1.50;1.10;;;14.00;1.00;;;;;;5119265;28;20588;-45
2023/08/04 00:29:09;;;;;;;3.30;1.60;;;14.00;1.00;;;;;;5100409;28;20195;-45
2023/08/04 00:31:35;;;;;;;2.33;1.43;;;14.00;1.00;;;;;;5118755;28;20176;-46
2023/08/04 00:34:01;;;;;;;3.70;1.50;;;14.00;1.00;;;;;;5119068;28;20376;-45
2023/08/04 00:36:26;;;;;;;1.83;1.10;;;14.00;1.00;;;;;;5119045;28;20184;-46
2023/08/04 00:38:52;;;;;;;2.87;1.40;;;13.90;1.00;;;;;;5119272;28;20432;-45
2023/08/04 00:41:18;;;;;;;2.50;1.10;;;13.90;1.00;;;;;;5118230;28;20184;-44
2023/08/04 00:43:43;;;;;;;1.87;1.00;;;13.90;1.00;;;;;;5117858;28;20195;-46
2023/08/04 00:46:09;;;;;;;2.17;1.10;;;13.90;1.00;;;;;;5117400;28;20485;-46
2023/08/04 00:48:35;;;;;;;1.80;1.47;;;13.80;1.70;;;;;;5117392;28;20220;-44
2023/08/04 00:51:01;;;;;;;1.30;0.90;;;13.80;12.10;;;;;;5117579;28;20417;-45
2023/08/04 00:53:27;;;;;;;1.50;1.10;;;13.80;14.20;;;;;;5117415;28;20406;-45
2023/08/04 00:55:53;;;;;;;2.77;1.40;;;13.80;18.50;;;;;;5118155;28;20839;-46
2023/08/04 00:58:19;;;;;;;3.63;1.80;;;13.80;27.10;;;;;;5100373;28;20275;-47
2023/08/04 01:00:45;;;;;;;2.40;1.47;;;13.80;38.50;;;;;;5117650;28;20912;-46
2023/08/04 01:03:11;;;;;;;2.27;1.10;;;13.70;51.90;;;;;;5116646;28;20437;-45
2023/08/04 01:06:00;;;;;;;3.33;1.43;;;13.70;70.60;;;;;;5118000;28;20284;-47
2023/08/04 01:08:30;;;;;;;1.30;1.10;;;13.70;99.90;;;;;;5099254;28;20854;-45
2023/08/04 01:11:07;;;;;;;1.70;1.30;;;13.60;99.90;;;;;;5116813;28;20717;-45
2023/08/04 01:13:34;;;;;;;4.80;1.87;;;13.60;99.90;;;;;;5098108;28;20541;-46
2023/08/04 01:16:00;;;;;;;2.10;1.37;;;13.60;99.90;;;;;;5116088;28;20449;-45
2023/08/04 01:18:26;;;;;;;2.10;1.30;;;13.60;99.90;;;;;;5116437;28;20421;-44
2023/08/04 01:20:52;;;;;;;3.43;1.50;;;13.60;99.90;;;;;;5116945;28;20482;-45
2023/08/04 01:23:17;;;;;;;1.80;1.17;;;13.60;99.90;;;;;;5097969;28;20183;-44
2023/08/04 01:25:43;;;;;;;2.07;1.50;;;13.50;99.90;;;;;;5115257;28;20203;-46
2023/08/04 01:28:11;;;;;;;1.93;1.27;;;13.40;99.90;;;;;;5116559;28;20211;-45
2023/08/04 01:30:38;;;;;;;1.83;1.63;;;13.40;99.90;;;;;;5100070;28;20198;-43
2023/08/04 01:33:04;;;;;;;2.87;1.37;;;13.40;99.90;;;;;;5116982;28;20707;-47
2023/08/04 01:35:29;;;;;;;2.00;1.40;;;13.40;99.90;;;;;;5116502;28;20409;-44
2023/08/04 01:37:55;;;;;;;2.90;1.10;;;13.40;99.90;;;;;;5115795;28;20481;-46
2023/08/04 01:40:21;;;;;;;2.30;1.13;;;13.40;99.90;;;;;;5116932;28;20311;-45
2023/08/04 01:42:46;;;;;;;2.50;1.30;;;13.40;99.90;;;;;;5116669;28;20191;-46
2023/08/04 01:45:12;;;;;;;4.77;1.43;;;13.40;99.90;;;;;;5116633;28;20245;-45
2023/08/04 01:47:39;;;;;;;1.90;1.13;;;13.40;99.90;;;;;;5116864;28;20259;-45
2023/08/04 01:50:07;;;;;;;2.53;1.10;;;13.40;99.90;;;;;;5117258;28;20210;-44
2023/08/04 01:52:32;;;;;;;2.77;1.30;;;13.40;99.90;;;;;;5117608;28;20702;-44
2023/08/04 01:54:58;;;;;;;1.87;1.33;;;13.40;99.90;;;;;;5116431;28;20449;-44
2023/08/04 01:57:24;;;;;;;1.87;1.00;;;13.40;99.90;;;;;;5116087;28;20461;-45
2023/08/04 01:59:49;;;;;;;4.30;1.43;;;13.40;99.90;;;;;;5117551;28;20414;-46
2023/08/04 02:02:15;;;;;;;3.23;1.23;;;13.40;99.90;;;;;;5117346;28;20179;-45
2023/08/04 02:04:40;;;;;;;3.00;1.40;;;13.40;99.90;;;;;;5116836;28;20302;-46
2023/08/04 02:07:06;;;;;;;4.93;1.50;;;13.40;99.90;;;;;;5116883;28;20203;-43
2023/08/04 02:09:33;;;;;;;1.20;0.73;;;13.40;99.90;;;;;;5117552;28;20211;-46
2023/08/04 02:11:59;;;;;;;1.93;0.90;;;13.40;99.90;;;;;;5116374;28;20518;-43
2023/08/04 02:14:27;;;;;;;1.73;1.17;;;13.40;99.90;;;;;;5116777;28;20414;-46
2023/08/04 02:16:54;;;;;;;3.10;1.40;;;13.40;99.90;;;;;;5116852;28;20574;-47
2023/08/04 02:19:21;;;;;;;2.93;1.20;;;13.50;99.90;;;;;;5116770;28;20433;-46
2023/08/04 02:21:46;;;;;;;2.60;1.40;;;13.50;99.90;;;;;;5116287;28;20444;-44
2023/08/04 02:24:12;;;;;;;2.57;1.50;;;13.50;99.90;;;;;;5115424;28;20477;-45
2023/08/04 02:26:38;;;;;;;3.33;1.67;;;13.50;99.90;;;;;;5114899;28;20176;-44
2023/08/04 02:32:25;;;;;;;2.30;1.00;;;13.50;99.90;;;;;;5114199;28;20519;-46
2023/08/04 02:34:51;;;;;;;3.63;1.23;;;13.50;99.90;;;;;;5097162;28;20434;-44
2023/08/04 02:37:16;;;;;;;2.60;1.30;;;13.50;99.90;;;;;;5115079;28;20191;-43
2023/08/04 02:39:42;;;;;;;1.73;1.13;;;13.50;99.90;;;;;;5115414;28;20413;-46
2023/08/04 02:42:09;;;;;;;2.33;1.40;;;13.50;99.90;;;;;;5115621;28;20215;-47
2023/08/04 02:44:34;;;;;;;3.13;1.63;;;13.50;99.90;;;;;;5115533;28;20534;-46
2023/08/04 02:47:00;;;;;;;2.20;1.10;;;13.60;99.90;;;;;;5116242;28;20188;-47
2023/08/04 02:49:25;;;;;;;1.53;0.87;;;13.60;99.90;;;;;;5115722;28;20187;-45
2023/08/04 02:51:51;;;;;;;2.13;0.80;;;13.60;99.90;;;;;;5116173;28;20195;-45
2023/08/04 02:54:16;;;;;;;2.33;0.90;;;13.60;99.90;;;;;;5116313;28;20566;-44
2023/08/04 02:56:42;;;;;;;1.53;1.27;;;13.60;99.90;;;;;;5115830;28;20188;-44
2023/08/04 02:59:07;;;;;;;4.50;1.10;;;13.60;99.90;;;;;;5115059;28;20196;-44
2023/08/04 03:01:33;;;;;;;1.60;1.10;;;13.60;99.90;;;;;;5114952;28;20202;-45
2023/08/04 03:03:58;;;;;;;3.70;1.17;;;13.60;99.90;;;;;;5114633;28;20191;-45
2023/08/04 03:06:24;;;;;;;1.40;0.90;;;13.60;99.90;;;;;;5115772;28;20180;-47
2023/08/04 03:08:50;;;;;;;1.90;1.00;;;13.60;99.90;;;;;;5116008;28;20561;-47
2023/08/04 03:11:15;;;;;;;3.13;1.23;;;13.50;99.90;;;;;;5113831;28;20508;-44
2023/08/04 03:13:41;;;;;;;3.60;1.30;;;13.60;99.90;;;;;;5096557;28;20190;-46
2023/08/04 03:16:06;;;;;;;2.03;1.27;;;13.60;99.90;;;;;;5115654;28;20203;-48
2023/08/04 03:18:32;;;;;;;2.17;1.00;;;13.60;99.90;;;;;;5115492;28;20225;-43
2023/08/04 03:21:01;;;;;;;2.73;0.90;;;13.60;99.90;;;;;;5115845;28;20195;-44
2023/08/04 03:23:27;;;;;;;4.13;1.30;;;13.60;99.90;;;;;;5116673;28;20450;-44
2023/08/04 03:25:53;;;;;;;3.70;1.33;;;13.60;99.90;;;;;;5115105;28;20473;-47
2023/08/04 03:28:18;;;;;;;2.73;1.20;;;13.60;99.90;;;;;;5116042;28;20238;-47
2023/08/04 03:30:44;;;;;;;2.23;1.10;;;13.60;99.90;;;;;;5107356;28;20266;-46
2023/08/04 03:33:09;;;;;;;1.27;1.00;;;13.60;99.90;;;;;;5095351;28;20301;-45
2023/08/04 03:35:35;;;;;;;1.50;1.20;;;13.60;99.90;;;;;;5095027;28;20323;-45
2023/08/04 03:38:02;;;;;;;1.40;0.90;;;13.70;99.90;;;;;;5095124;28;20480;-47
2023/08/04 03:40:28;;;;;;;1.70;0.90;;;13.70;99.90;;;;;;5093110;28;20191;-45
2023/08/04 03:42:53;;;;;;;2.43;1.07;;;13.70;99.90;;;;;;5092656;28;20422;-47
2023/08/04 03:45:19;;;;;;;1.70;0.90;;;13.70;99.90;;;;;;5104031;28;20323;-45
2023/08/04 03:47:45;;;;;;;1.70;1.10;;;13.70;99.90;;;;;;5075595;28;20466;-45
2023/08/04 03:50:10;;;;;;;1.93;1.00;;;13.80;99.90;;;;;;5108498;28;20184;-44
2023/08/04 03:52:37;;;;;;;3.50;1.20;;;13.80;99.90;;;;;;5114597;28;20593;-48
2023/08/04 03:55:04;;;;;;;2.40;1.13;;;13.90;99.90;;;;;;5114055;28;20179;-46
2023/08/04 03:57:30;;;;;;;1.87;1.00;;;13.90;99.90;;;;;;5098180;28;20410;-46
2023/08/04 03:59:56;;;;;;;2.37;0.97;;;13.90;99.90;;;;;;5093914;28;20468;-45
2023/08/04 04:02:21;;;;;;;2.00;1.00;;;13.90;99.90;;;;;;5093537;28;20268;-44
2023/08/04 04:04:47;;;;;;;2.33;0.97;;;14.00;99.90;;;;;;5092862;28;20240;-45
2023/08/04 04:07:13;;;;;;;2.03;1.10;;;14.00;99.90;;;;;;5108239;28;20255;-45
2023/08/04 04:09:38;;;;;;;1.40;0.90;;;14.00;99.90;;;;;;5096444;28;20260;-46
2023/08/04 04:12:04;;;;;;;3.00;1.20;;;14.00;99.90;;;;;;5095126;28;20195;-47
2023/08/04 04:14:30;;;;;;;1.27;0.97;;;14.10;99.20;;;;;;5112114;28;20209;-43
2023/08/04 04:16:56;;;;;;;2.00;1.10;;;14.10;99.90;;;;;;5082004;28;20528;-46
2023/08/04 04:19:21;;;;;;;1.93;1.10;;;14.10;99.90;;;;;;5104609;28;20949;-44
2023/08/04 04:21:47;;;;;;;2.10;0.87;;;14.10;99.90;;;;;;5113798;28;20179;-46
2023/08/04 04:24:13;;;;;;;3.60;1.37;;;14.20;99.90;;;;;;5097961;28;20196;-44
2023/08/04 04:26:38;;;;;;;3.40;1.30;;;14.20;99.90;;;;;;5106406;28;20231;-46
2023/08/04 04:29:04;;;;;;;1.80;1.17;;;14.30;99.90;;;;;;5117444;28;20199;-44
2023/08/04 04:31:29;;;;;;;2.20;1.10;;;14.30;72.20;;;;;;5116860;28;20180;-46
2023/08/04 04:33:55;;;;;;;2.60;1.10;;;14.30;52.90;;;;;;5115933;28;20215;-43
2023/08/04 04:36:21;;;;;;;1.73;1.07;;;14.30;52.30;;;;;;5116291;28;20219;-46
2023/08/04 04:38:46;;;;;;;3.37;0.97;;;14.40;18.80;;;;;;5102866;28;20188;-44
2023/08/04 04:41:12;;;;;;;2.23;1.00;;;14.40;5.60;;;;;;5096561;28;20181;-45
2023/08/04 04:43:37;;;;;;;2.90;1.43;;;14.50;7.00;;;;;;5096905;28;20188;-45
2023/08/04 04:46:03;;;;;;;3.43;1.30;;;14.60;1.00;;;;;;5096868;28;20224;-45
2023/08/04 04:48:29;;;;;;;3.13;1.33;;;14.60;1.00;;;;;;5109530;28;20224;-43
2023/08/04 04:50:55;;;;;;;2.07;1.23;;;14.60;1.00;;;;;;5096658;28;20188;-44
2023/08/04 04:53:21;;;;;;;3.57;1.03;;;14.70;1.00;;;;;;5115086;28;20498;-48
2023/08/04 04:55:46;;;;;;;3.73;1.57;;;14.70;1.00;;;;;;5115619;28;20198;-45
2023/08/04 04:58:12;;;;;;;1.67;0.97;;;14.80;1.00;;;;;;5115841;28;20454;-45
2023/08/04 05:00:38;;;;;;;1.70;1.10;;;14.80;1.00;;;;;;5116286;28;20180;-45
2023/08/04 05:03:08;;;;;;;3.10;1.37;;;14.80;1.00;;;;;;5116998;28;20196;-44
2023/08/04 05:05:35;;;;;;;2.30;1.40;;;14.80;1.00;;;;;;5116771;28;20253;-48
2023/08/04 05:08:01;;;;;;;1.90;1.20;;;14.90;1.00;;;;;;5116344;28;20410;-45
2023/08/04 05:10:26;;;;;;;1.90;1.50;;;15.00;1.00;;;;;;5098408;28;20445;-43
2023/08/04 05:12:52;;;;;;;1.40;1.00;;;15.10;1.00;;;;;;5115171;28;20188;-44
2023/08/04 05:15:18;;;;;;;3.10;1.50;;;15.10;1.00;;;;;;5114038;28;20164;-45
2023/08/04 05:17:47;;;;;;;2.00;1.30;;;15.30;1.00;;;;;;5114629;28;20462;-44
2023/08/04 05:20:13;;;;;;;3.00;1.07;;;15.30;99.90;;;;;;5113281;28;20438;-48
2023/08/04 05:22:40;;;;;;;2.43;1.13;;;15.50;99.90;;;;;;5114557;28;20446;-45
2023/08/04 05:25:07;;;;;;;2.87;1.30;;;15.60;99.90;;;;;;5115884;28;20241;-47
2023/08/04 05:27:32;;;;;;;4.40;1.67;;;15.70;42.60;;;;;;5115686;28;20429;-47
2023/08/04 05:29:58;;;;;;;1.97;1.20;;;15.80;1.00;;;;;;5116070;28;20707;-46
2023/08/04 05:32:24;;;;;;;1.53;1.13;;;15.80;1.00;;;;;;5110977;28;20278;-47
2023/08/04 05:34:49;;;;;;;1.70;0.90;;;15.80;1.00;;;;;;5116292;28;20270;-48
2023/08/04 05:37:15;;;;;;;3.20;1.30;;;15.90;1.00;;;;;;5114766;28;20188;-45
2023/08/04 05:39:40;;;;;;;3.73;1.50;;;16.00;1.00;;;;;;5112605;28;20190;-44
2023/08/04 05:42:06;;;;;;;2.33;1.17;;;16.20;1.00;;;;;;5113552;28;20585;-46
2023/08/04 05:44:32;;;;;;;3.33;1.07;;;16.40;99.90;;;;;;5114345;28;20208;-46
2023/08/04 05:46:59;;;;;;;6.97;1.80;;;16.60;99.90;;;;;;5114709;28;21117;-46
2023/08/04 05:49:24;;;;;;;2.00;1.17;;;16.80;1.00;;;;;;5114805;28;20577;-45
2023/08/04 05:51:50;;;;;;;2.63;1.30;;;16.90;1.00;;;;;;5113816;28;20410;-45
2023/08/04 05:54:16;;;;;;;2.90;1.07;;;17.00;1.00;;;;;;5114719;28;20176;-45
2023/08/04 05:56:41;;;;;;;2.50;1.00;;;17.20;99.90;;;;;;5114261;28;20641;-45
2023/08/04 05:59:07;;;;;;;1.67;1.00;;;17.30;20.80;;;;;;5096432;28;20203;-46
2023/08/04 06:01:32;;;;;;;8.03;1.77;;;17.40;1.00;;;;;;5114963;28;20310;-45
2023/08/04 06:03:58;;;;;;;2.60;1.33;;;17.50;99.90;;;;;;5114723;28;20200;-44
2023/08/04 06:06:24;;;;;;;1.90;0.90;;;17.60;1.00;;;;;;5114057;28;20180;-46
2023/08/04 06:08:49;;;;;;;1.20;1.07;;;17.70;1.00;;;;;;5114100;28;20286;-45
2023/08/04 06:11:15;;;;;;;2.33;1.30;;;17.70;99.90;;;;;;5114237;28;20234;-45
2023/08/04 06:13:41;;;;;;;2.47;1.00;;;17.60;1.00;;;;;;5097252;28;20198;-46
2023/08/04 06:16:06;;;;;;;1.70;1.40;;;17.70;1.00;;;;;;5097227;28;20444;-45
2023/08/04 06:18:32;;;;;;;1.60;1.10;;;17.80;99.90;;;;;;5114134;28;20179;-47
2023/08/04 06:20:58;;;;;;;2.23;1.17;;;17.70;99.90;;;;;;5113703;28;20373;-43
2023/08/04 06:23:24;;;;;;;2.97;0.93;;;17.70;1.00;;;;;;5112104;28;20289;-47
2023/08/04 06:25:49;;;;;;;1.93;1.13;;;17.90;99.90;;;;;;5113938;28;20484;-45
2023/08/04 06:28:15;;;;;;;2.70;1.30;;;18.10;1.00;;;;;;5113591;28;20520;-44
2023/08/04 06:30:41;;;;;;;1.87;1.20;;;18.10;99.90;;;;;;5113201;28;20164;-44
2023/08/04 06:33:07;;;;;;;3.90;1.30;;;18.10;99.90;;;;;;5112944;28;20501;-47
2023/08/04 06:35:32;;;;;;;1.83;0.90;;;18.10;99.90;;;;;;5113343;28;20621;-45
2023/08/04 06:37:58;;;;;;;2.57;1.63;;;18.00;99.90;;;;;;5112301;28;20294;-47
2023/08/04 06:40:24;;;;;;;2.13;1.20;;;18.20;99.90;;;;;;5112974;28;20188;-44
2023/08/04 06:42:49;;;;;;;2.00;1.10;;;18.30;29.60;;;;;;5111376;28;20206;-44
2023/08/04 06:45:15;;;;;;;2.17;1.13;;;18.50;1.00;;;;;;5113258;28;20211;-46
2023/08/04 06:47:41;;;;;;;3.30;1.40;;;18.50;1.00;;;;;;5111695;28;20184;-43
2023/08/04 06:50:07;;;;;;;1.77;1.00;;;18.60;1.00;;;;;;5112247;28;20294;-46
2023/08/04 06:52:33;;;;;;;2.47;1.17;;;18.70;1.00;;;;;;5110284;28;20247;-45
2023/08/04 06:54:59;;;;;;;3.70;1.20;;;18.90;99.90;;;;;;5111073;28;20406;-44
2023/08/04 06:57:24;;;;;;;1.63;0.83;;;18.80;99.90;;;;;;5095895;28;20214;-43
2023/08/04 06:59:50;;;;;;;1.77;1.07;;;18.80;99.90;;;;;;5112224;28;20234;-44
2023/08/04 07:02:16;;;;;;;1.60;0.93;;;19.00;99.90;;;;;;5114270;28;20402;-46
2023/08/04 07:04:42;;;;;;;2.10;1.20;;;19.10;97.40;;;;;;5113413;28;20685;-45
2023/08/04 07:07:07;;;;;;;2.70;1.13;;;19.30;96.80;;;;;;5114111;28;20509;-44
2023/08/04 07:09:33;;;;;;;2.37;1.10;;;19.60;1.00;;;;;;5114504;28;20206;-45
2023/08/04 07:11:58;;;;;;;1.90;0.90;;;19.80;1.00;;;;;;5112950;28;20234;-46
2023/08/04 07:14:24;;;;;;;1.80;0.87;;;20.00;1.00;;;;;;5112727;28;20184;-47
2023/08/04 07:16:50;;;;;;;2.87;0.90;;;20.30;1.00;;;;;;5112416;28;20569;-46
2023/08/04 07:19:15;;;;;;;1.53;0.93;;;20.40;1.00;;;;;;5110048;28;20460;-45
2023/08/04 07:21:42;;;;;;;1.10;0.80;;;20.50;99.90;;;;;;5111614;28;20187;-44
2023/08/04 07:24:08;;;;;;;2.17;1.07;;;20.80;99.90;;;;;;5093276;28;20337;-46
2023/08/04 07:26:34;;;;;;;1.90;1.00;;;20.90;99.90;;;;;;5108999;28;20529;-44
2023/08/04 07:29:00;;;;;;;1.47;0.70;;;20.70;99.90;;;;;;5109231;28;20472;-45
2023/08/04 07:31:26;;;;;;;2.40;1.20;;;20.90;99.90;;;;;;5091080;28;20952;-47
2023/08/04 07:33:51;;;;;;;2.50;1.40;;;20.80;99.90;;;;;;5109281;28;20457;-46
2023/08/04 07:36:17;;;;;;;1.83;1.00;;;21.00;99.90;;;;;;5111146;28;20604;-46
2023/08/04 07:38:42;;;;;;;3.20;1.43;;;21.30;99.90;;;;;;5109638;28;20183;-45
2023/08/04 07:41:08;;;;;;;3.67;1.47;;;21.40;99.90;;;;;;5112404;28;20196;-45
2023/08/04 07:43:34;;;;;;;5.37;1.50;;;21.60;99.90;;;;;;5111147;28;20188;-44
2023/08/04 07:45:59;;;;;;;4.07;1.00;;;21.70;99.90;;;;;;5111896;28;20307;-45
2023/08/04 07:48:25;;;;;;;2.67;1.13;;;21.50;99.90;;;;;;5105256;28;20192;-45
2023/08/04 07:50:52;;;;;;;3.97;1.40;;;21.40;99.90;;;;;;5095612;28;20559;-46
2023/08/04 07:53:18;;;;;;;2.07;0.90;;;21.50;99.90;;;;;;5114150;28;20191;-46
2023/08/04 07:55:55;;;;;;;3.53;1.00;;;21.20;99.90;;;;;;5096392;28;20428;-45
2023/08/04 07:58:20;;;;;;;3.00;1.40;;;20.90;99.90;;;;;;5115231;28;20531;-44
2023/08/04 08:00:46;;;;;;;5.13;1.63;;;20.70;99.90;;;;;;5114680;28;20520;-44
2023/08/04 08:03:11;;;;;;;2.37;1.00;;;20.60;99.90;;;;;;5113419;28;20191;-47
2023/08/04 08:05:37;;;;;;;3.53;1.33;;;20.60;99.90;;;;;;5112303;28;20215;-46
2023/08/04 08:08:03;;;;;;;1.40;0.90;;;20.50;99.90;;;;;;5110789;28;20283;-44
2023/08/04 08:10:28;;;;;;;2.70;1.10;;;20.70;99.90;;;;;;5114965;28;20678;-46
2023/08/04 08:12:54;;;;;;;1.50;0.90;;;20.80;99.90;;;;;;5115037;28;20202;-44
2023/08/04 08:15:20;;;;;;;2.90;1.70;;;20.60;99.90;;;;;;5116510;28;20294;-44
2023/08/04 08:17:45;;;;;;;2.87;1.43;;;20.80;99.90;;;;;;5100100;28;20196;-44
2023/08/04 08:20:11;;;;;;;1.67;0.80;;;21.00;99.90;;;;;;5083805;28;20199;-46
2023/08/04 08:22:37;;;;;;;2.30;1.17;;;21.30;99.90;;;;;;5117651;28;20418;-46
2023/08/04 10:27:57;;;;;;;5.00;4.30;;;21.90;1.00;;;;;;6182081;22;3014262;-44
2023/08/04 10:30:24;;;;;;;4.93;4.07;;;22.30;99.90;;;;;;6316496;22;20386;-44
2023/08/04 10:32:50;;;;;;;9.37;4.27;;;22.70;99.90;;;;;;6314699;22;20407;-45
2023/08/04 10:35:21;;;;;;;19.50;17.07;;;23.30;96.10;;;;;;6312074;22;20366;-43
2023/08/04 10:37:49;;;;;;;52.90;47.37;;;23.90;1.00;;;;;;6313616;22;20215;-42
2023/08/04 10:40:29;;;;;;;21.03;18.70;;;24.60;1.00;;;;;;6314152;22;20640;-45
2023/08/04 10:43:06;;;;;;;5.47;4.87;;;25.60;99.90;;;;;;6312899;22;20495;-43
2023/08/04 10:45:54;;;;;;;3.83;3.00;;;26.40;99.90;;;;;;6314379;22;20967;-45
2023/08/04 10:48:21;;;;;;;7.97;5.07;;;27.30;82.00;;;;;;6313753;22;20502;-44
2023/08/04 10:50:50;;;;;;;4.20;2.53;;;28.00;1.00;;;;;;6314809;22;20439;-45
2023/08/04 10:53:16;;;;;;;2.93;1.80;;;28.70;1.00;;;;;;6314722;22;20490;-42
2023/08/04 10:55:55;;;;;;;3.20;2.47;;;30.50;1.00;;;;;;6314297;22;20373;-44
2023/08/04 10:58:25;;;;;;;5.63;3.40;;;32.00;1.00;;;;;;6261642;22;20237;-42
2023/08/04 11:00:53;;;;;;;2.23;1.37;;;32.30;1.00;;;;;;6314994;22;20381;-43
2023/08/04 11:03:25;;;;;;;1.60;1.30;;;31.60;1.00;;;;;;6314519;22;20360;-45
2023/08/04 11:05:51;;;;;;;2.57;1.47;;;30.60;1.00;;;;;;6286266;22;20360;-43
2023/08/04 11:08:21;;;;;;;2.40;1.30;;;29.40;1.00;;;;;;6260447;22;20418;-43
2023/08/04 11:10:54;;;;;;;4.23;2.10;;;28.20;1.00;;;;;;6304557;22;20367;-43
2023/08/04 11:13:22;;;;;;;2.57;1.77;;;27.10;1.00;;;;;;6307651;22;20360;-43
2023/08/04 11:15:48;;;;;;;4.17;1.90;;;26.00;1.00;;;;;;6278278;22;20413;-51
2023/08/04 11:18:16;;;;;;;4.70;2.10;;;25.00;1.00;;;;;;6277476;22;20414;-42
2023/08/04 11:20:42;;;;;;;3.00;1.80;;;24.10;1.00;;;;;;6275422;22;20633;-43
2023/08/04 11:23:10;;;;;;;2.97;1.90;;;23.50;1.00;;;;;;6304088;22;20375;-45
2023/08/04 11:25:38;;;;;;;2.40;1.80;;;23.10;38.20;;;;;;6253730;22;20725;-43
2023/08/04 11:28:04;;;;;;;3.07;2.10;;;22.60;99.90;;;;;;6276750;22;20714;-43
2023/08/04 11:30:35;;;;;;;4.00;1.90;;;22.30;1.00;;;;;;6278229;22;20429;-42
2023/08/04 11:33:02;;;;;;;3.37;2.00;;;22.00;99.90;;;;;;6277926;22;20597;-44
2023/08/04 11:35:30;;;;;;;4.70;2.73;;;21.90;1.00;;;;;;6252435;22;20382;-41
2023/08/04 11:37:56;;;;;;;7.13;2.37;;;21.90;14.80;;;;;;6252787;22;20393;-42
2023/08/04 11:40:23;;;;;;;4.20;2.37;;;21.80;99.90;;;;;;6277378;22;20393;-45
2023/08/04 11:42:49;;;;;;;3.53;1.87;;;21.90;1.00;;;;;;6303943;22;20393;-42
2023/08/04 11:45:15;;;;;;;4.27;2.27;;;22.00;1.00;;;;;;6277338;22;20387;-45
2023/08/04 11:47:40;;;;;;;3.60;2.13;;;22.10;1.00;;;;;;6304542;22;20555;-46
2023/08/04 11:50:08;;;;;;;4.93;3.20;;;22.40;1.00;;;;;;6304588;22;20221;-44
2023/08/04 11:52:37;;;;;;;3.20;1.90;;;22.50;99.90;;;;;;6307693;22;20188;-46
2023/08/04 11:55:04;;;;;;;1.83;1.63;;;22.60;1.00;;;;;;6306510;22;20389;-42
2023/08/04 11:57:30;;;;;;;2.30;1.40;;;22.80;1.00;;;;;;6306571;22;20394;-44
2023/08/04 11:59:56;;;;;;;3.50;1.80;;;22.80;1.00;;;;;;6305375;22;21093;-43
2023/08/04 12:02:22;;;;;;;2.13;1.57;;;23.00;1.00;;;;;;6306440;22;20159;-43
2023/08/04 12:05:05;;;;;;;3.13;1.60;;;23.20;99.90;;;;;;6308446;22;20152;-45
2023/08/04 12:07:32;;;;;;;3.40;1.90;;;23.50;99.90;;;;;;6307341;22;20498;-46
2023/08/04 12:09:58;;;;;;;5.47;1.67;;;23.80;99.90;;;;;;6280295;22;20389;-43
2023/08/04 12:12:36;;;;;;;2.63;2.00;;;24.60;99.90;;;;;;6306812;22;20386;-43
2023/08/04 12:15:02;;;;;;;2.13;1.40;;;26.90;1.00;;;;;;6277927;22;20553;-43
2023/08/04 12:17:39;;;;;;;2.23;1.40;;;29.00;99.90;;;;;;6307658;22;20378;-44
2023/08/04 12:20:09;;;;;;;1.80;1.20;;;31.10;1.00;;;;;;6308108;22;20381;-46
2023/08/04 12:22:39;;;;;;;1.73;1.20;;;32.70;1.00;;;;;;6307121;22;20392;-44
2023/08/04 12:25:05;;;;;;;1.60;1.10;;;33.30;1.00;;;;;;6307910;22;20800;-45
2023/08/04 12:27:31;;;;;;;1.50;1.10;;;33.50;1.00;;;;;;6277407;22;20629;-44
2023/08/04 12:29:57;;;;;;;3.60;2.27;;;33.10;1.00;;;;;;6304492;22;20465;-43
2023/08/04 12:32:23;;;;;;;4.00;1.57;;;32.60;1.00;;;;;;6305552;22;20378;-42
2023/08/04 12:34:48;;;;;;;1.90;1.07;;;31.70;1.00;;;;;;6306668;22;20174;-45
2023/08/04 12:37:14;;;;;;;1.67;1.20;;;30.80;1.00;;;;;;6278506;22;20152;-44
2023/08/04 12:39:41;;;;;;;3.03;1.77;;;29.80;1.00;;;;;;6304858;22;20148;-43
2023/08/04 12:42:07;;;;;;;3.57;2.67;;;29.20;1.00;;;;;;6278040;22;20144;-44
2023/08/04 12:44:32;;;;;;;2.57;1.40;;;28.50;1.00;;;;;;6306958;22;20389;-44
2023/08/04 12:46:58;;;;;;;2.67;1.13;;;27.80;1.00;;;;;;6305926;22;20612;-44
2023/08/04 12:49:23;;;;;;;3.10;1.17;;;27.30;1.00;;;;;;6305704;22;20152;-44
2023/08/04 12:51:49;;;;;;;7.17;1.30;;;26.70;1.00;;;;;;6305918;22;20167;-44
2023/08/04 12:54:15;;;;;;;5.80;1.37;;;26.20;1.00;;;;;;6279094;22;20156;-44
2023/08/04 12:56:40;;;;;;;1.40;1.03;;;25.60;1.00;;;;;;6305941;22;20167;-43
2023/08/04 12:59:06;;;;;;;1.47;1.23;;;25.10;1.00;;;;;;6306080;22;20179;-43
2023/08/04 13:01:32;;;;;;;1.90;0.70;;;24.80;1.00;;;;;;6304707;22;20152;-43
2023/08/04 13:03:57;;;;;;;1.83;1.00;;;24.30;1.00;;;;;;6304592;22;20497;-42
2023/08/04 13:06:23;;;;;;;2.57;1.03;;;23.70;1.00;;;;;;6303437;22;20242;-43
2023/08/04 13:08:49;;;;;;;2.03;1.10;;;23.20;1.00;;;;;;6303291;22;20171;-42
2023/08/04 13:11:14;;;;;;;3.43;2.13;;;22.80;99.90;;;;;;6305735;22;20180;-43
2023/08/04 13:13:40;;;;;;;3.27;1.13;;;22.30;99.90;;;;;;6306097;22;20172;-43
2023/08/04 13:16:05;;;;;;;3.20;1.40;;;21.80;1.00;;;;;;6305884;22;20537;-42
2023/08/04 13:18:34;;;;;;;2.20;1.80;;;21.50;1.00;;;;;;6280553;22;20227;-42
2023/08/04 13:21:04;;;;;;;1.77;1.23;;;21.20;1.00;;;;;;6253167;22;20147;-41
2023/08/04 13:23:33;;;;;;;2.13;1.50;;;21.00;90.20;;;;;;6306437;22;20799;-45
2023/08/04 13:26:06;;;;;;;1.93;1.73;;;20.80;99.90;;;;;;6307444;22;20393;-43
2023/08/04 13:28:32;;;;;;;2.50;1.80;;;20.80;1.00;;;;;;6278728;22;20492;-40
2023/08/04 13:31:05;;;;;;;2.00;1.63;;;20.80;99.90;;;;;;6278727;22;20378;-42
2023/08/04 13:33:31;;;;;;;2.93;1.40;;;20.70;1.00;;;;;;6308149;22;20382;-43
2023/08/04 13:35:56;;;;;;;2.00;1.70;;;20.60;14.10;;;;;;6306340;22;20401;-42
2023/08/04 13:38:22;;;;;;;2.07;1.87;;;20.60;99.90;;;;;;6279254;22;20402;-41
2023/08/04 13:40:49;;;;;;;2.27;1.70;;;20.50;99.90;;;;;;6305432;22;20152;-42
2023/08/04 13:43:16;;;;;;;3.57;1.73;;;20.30;1.00;;;;;;6305631;22;20159;-43
2023/08/04 13:45:42;;;;;;;2.40;1.93;;;20.30;99.90;;;;;;6307086;22;20389;-44
2023/08/04 13:48:07;;;;;;;2.23;2.00;;;20.40;1.00;;;;;;6305366;22;20398;-43
2023/08/04 13:50:33;;;;;;;3.70;2.23;;;20.30;99.90;;;;;;6305285;22;20136;-44
2023/08/04 13:52:58;;;;;;;3.17;2.10;;;20.20;99.90;;;;;;6277704;22;20251;-44
2023/08/04 13:55:24;;;;;;;2.23;2.00;;;20.20;99.90;;;;;;6305126;22;20420;-43
2023/08/04 13:57:50;;;;;;;2.03;1.93;;;20.10;1.00;;;;;;6304837;22;20609;-44
2023/08/04 14:00:15;;;;;;;3.17;2.10;;;20.10;1.00;;;;;;6251609;22;20182;-41
2023/08/04 14:02:42;;;;;;;2.50;2.27;;;20.10;1.00;;;;;;6250012;22;20518;-44
2023/08/04 14:05:08;;;;;;;2.57;2.37;;;20.10;1.00;;;;;;6304052;22;20153;-44
2023/08/04 14:07:34;;;;;;;6.90;2.10;;;20.10;1.00;;;;;;6276344;22;20440;-43
2023/08/04 14:10:00;;;;;;;4.50;2.73;;;20.10;28.30;;;;;;6301418;22;20400;-43
2023/08/04 14:12:28;;;;;;;2.53;2.30;;;20.20;99.90;;;;;;6304669;22;20152;-43
2023/08/04 14:14:54;;;;;;;2.80;2.43;;;20.30;30.40;;;;;;6251072;22;20469;-45
2023/08/04 14:17:21;;;;;;;2.73;2.07;;;20.40;1.00;;;;;;6301716;22;20742;-44
2023/08/04 14:19:46;;;;;;;3.13;2.73;;;20.50;99.90;;;;;;6302837;22;20152;-43
2023/08/04 14:22:12;;;;;;;3.00;2.70;;;20.50;99.90;;;;;;6249691;22;20405;-43
2023/08/04 14:24:38;;;;;;;3.17;2.87;;;20.60;99.90;;;;;;6275150;22;20199;-41
2023/08/04 14:27:04;;;;;;;8.20;7.17;;;20.70;99.90;;;;;;6251093;22;20166;-42
2023/08/04 14:29:30;;;;;;;4.90;4.17;;;20.80;66.80;;;;;;6305172;22;20262;-42
2023/08/04 14:31:56;;;;;;;3.00;2.50;;;20.80;1.00;;;;;;6253890;22;20411;-43
2023/08/04 14:34:22;;;;;;;2.73;2.43;;;20.90;8.40;;;;;;6305724;22;20418;-44
2023/08/04 14:36:50;;;;;;;4.00;2.30;;;20.80;99.90;;;;;;6276988;22;20148;-43
2023/08/04 14:39:16;;;;;;;3.63;2.40;;;20.80;99.90;;;;;;6302871;22;20163;-42
2023/08/04 14:41:42;;;;;;;2.97;2.37;;;20.90;99.90;;;;;;6305005;22;20358;-42
2023/08/04 14:44:08;;;;;;;2.73;2.53;;;20.80;99.90;;;;;;6278676;22;20398;-42
2023/08/04 14:46:33;;;;;;;3.80;2.63;;;20.70;50.20;;;;;;6278816;22;20168;-43
2023/08/04 14:48:59;;;;;;;2.80;2.40;;;20.70;99.90;;;;;;6277851;22;20316;-44
2023/08/04 14:51:25;;;;;;;2.50;2.30;;;20.70;1.00;;;;;;6278939;22;20179;-44
2023/08/04 14:53:50;;;;;;;4.27;2.60;;;20.70;1.00;;;;;;6305169;22;20132;-46